createdAt,value
2018-11-04T00:00:54.756Z,102225.66
2018-11-04T00:03:22.978Z,102214.26
2018-11-04T00:05:51.166Z,102210.34
2018-11-04T00:08:19.337Z,102203.37
2018-11-04T00:10:47.471Z,102205.45
2018-11-04T00:13:15.715Z,102204.69
2018-11-04T00:15:43.831Z,102193.53
2018-11-04T00:18:12.331Z,102190.98
2018-11-04T00:20:40.522Z,102195.26
2018-11-04T00:23:08.820Z,102192.92
2018-11-04T00:25:36.958Z,102193.75
2018-11-04T00:28:05.367Z,102185.80
2018-11-04T00:30:33.501Z,102191.84
2018-11-04T00:33:01.679Z,102186.63
2018-11-04T00:35:29.813Z,102192.06
2018-11-04T00:37:57.992Z,102189.11
2018-11-04T00:40:26.089Z,102183.95
2018-11-04T00:42:54.242Z,102188.44
2018-11-04T00:45:22.478Z,102182.19
2018-11-04T00:47:50.549Z,102175.05
2018-11-04T00:50:18.660Z,102172.96
2018-11-04T00:52:46.785Z,102163.50
2018-11-04T00:55:15.162Z,102166.75
2018-11-04T00:57:43.464Z,102156.80
2018-11-04T01:00:14.822Z,102163.55
2018-11-04T01:02:43.702Z,102155.44
2018-11-04T01:05:11.828Z,102146.67
2018-11-04T01:07:40.903Z,102141.67
2018-11-04T01:10:10.195Z,102138.27
2018-11-04T01:12:38.455Z,102139.41
2018-11-04T01:15:07.621Z,102132.06
2018-11-04T01:17:35.715Z,102126.89
2018-11-04T01:20:03.886Z,102119.42
2018-11-04T01:22:32.204Z,102113.81
2018-11-04T01:25:00.302Z,102119.90
2018-11-04T01:27:28.384Z,102118.45
2018-11-04T01:29:56.501Z,102108.64
2018-11-04T01:32:24.893Z,102111.80
2018-11-04T01:34:53.066Z,102109.66
2018-11-04T01:37:21.264Z,102104.13
2018-11-04T01:39:50.257Z,102099.16
2018-11-04T01:42:18.530Z,102097.38
2018-11-04T01:44:46.629Z,102097.98
2018-11-04T01:47:14.735Z,102094.59
2018-11-04T01:49:42.862Z,102097.06
2018-11-04T01:52:10.965Z,102097.50
2018-11-04T01:54:39.096Z,102091.16
2018-11-04T01:57:07.240Z,102088.41
2018-11-04T01:59:35.336Z,102089.32
2018-11-04T02:02:03.470Z,102083.17
2018-11-04T02:04:31.753Z,102080.99
2018-11-04T02:06:59.873Z,102080.82
2018-11-04T02:09:27.996Z,102075.65
2018-11-04T02:11:56.088Z,102075.18
2018-11-04T02:14:24.186Z,102069.63
2018-11-04T02:16:52.310Z,102067.03
2018-11-04T02:19:20.454Z,102059.19
2018-11-04T02:21:48.606Z,102060.61
2018-11-04T02:24:16.734Z,102044.08
2018-11-04T02:26:44.882Z,102046.53
2018-11-04T02:29:13.257Z,102045.16
2018-11-04T02:31:41.352Z,102039.36
2018-11-04T02:34:09.476Z,102034.67
2018-11-04T02:36:37.594Z,102032.92
2018-11-04T02:39:06.870Z,102035.59
2018-11-04T02:41:34.976Z,102030.55
2018-11-04T02:44:03.106Z,102029.92
2018-11-04T02:46:31.176Z,102031.62
2018-11-04T02:48:59.342Z,102032.33
2018-11-04T02:51:27.536Z,102032.15
2018-11-04T02:53:55.686Z,102029.03
2018-11-04T02:56:23.892Z,102028.88
2018-11-04T02:58:52.008Z,102028.88
2018-11-04T03:01:20.099Z,102028.58
2018-11-04T03:03:48.201Z,102026.14
2018-11-04T03:06:16.365Z,102024.48
2018-11-04T03:08:44.447Z,102021.20
2018-11-04T03:11:12.598Z,102011.94
2018-11-04T03:13:40.731Z,102008.96
2018-11-04T03:16:08.857Z,102005.55
2018-11-04T03:18:36.976Z,101995.91
2018-11-04T03:21:05.392Z,101997.22
2018-11-04T03:23:33.496Z,101990.45
2018-11-04T03:26:01.690Z,101997.22
2018-11-04T03:28:29.840Z,101986.95
2018-11-04T03:30:57.952Z,101987.48
2018-11-04T03:33:26.105Z,101987.84
2018-11-04T03:35:54.251Z,101976.80
2018-11-04T03:38:22.476Z,101974.12
2018-11-04T03:40:50.585Z,101973.21
2018-11-04T03:43:18.678Z,101972.32
2018-11-04T03:45:46.820Z,101974.31
2018-11-04T03:48:14.908Z,101975.69
2018-11-04T03:50:43.024Z,101968.63
2018-11-04T03:53:11.104Z,101970.32
2018-11-04T03:55:39.250Z,101968.14
2018-11-04T03:58:07.377Z,101953.68
2018-11-04T04:00:35.496Z,101960.55
2018-11-04T04:03:03.572Z,101956.38
2018-11-04T04:05:31.686Z,101954.48
2018-11-04T04:07:59.813Z,101945.63
2018-11-04T04:10:27.974Z,101943.91
2018-11-04T04:12:56.079Z,101943.66
2018-11-04T04:15:24.244Z,101936.07
2018-11-04T04:17:52.424Z,101928.89
2018-11-04T04:20:20.583Z,101929.48
2018-11-04T04:22:48.680Z,101924.91
2018-11-04T04:25:16.784Z,101918.44
2018-11-04T04:27:44.858Z,101919.73
2018-11-04T04:30:13.009Z,101918.94
2018-11-04T04:32:41.243Z,101913.78
2018-11-04T04:35:10.129Z,101912.97
2018-11-04T04:37:38.255Z,101911.07
2018-11-04T04:40:06.396Z,101913.55
2018-11-04T04:42:34.562Z,101912.13
2018-11-04T04:45:02.660Z,101910.75
2018-11-04T04:47:30.754Z,101908.86
2018-11-04T04:49:58.885Z,101904.97
2018-11-04T04:52:26.975Z,101906.48
2018-11-04T04:54:55.091Z,101900.68
2018-11-04T04:57:23.257Z,101904.28
2018-11-04T04:59:51.337Z,101896.59
2018-11-04T05:02:19.500Z,101898.39
2018-11-04T05:04:47.580Z,101891.20
2018-11-04T05:07:15.853Z,101891.23
2018-11-04T05:09:44.045Z,101893.09
2018-11-04T05:12:12.283Z,101890.67
2018-11-04T05:14:40.376Z,101885.77
2018-11-04T05:17:08.535Z,101880.44
2018-11-04T05:19:36.636Z,101882.91
2018-11-04T05:22:04.999Z,101882.02
2018-11-04T05:24:33.118Z,101875.20
2018-11-04T05:27:01.227Z,101876.58
2018-11-04T05:29:29.327Z,101877.70
2018-11-04T05:31:57.400Z,101871.05
2018-11-04T05:34:25.543Z,101872.09
2018-11-04T05:36:53.755Z,101870.50
2018-11-04T05:39:21.913Z,101872.69
2018-11-04T05:41:50.017Z,101868.89
2018-11-04T05:44:19.173Z,101869.19
2018-11-04T05:46:47.305Z,101871.80
2018-11-04T05:49:15.590Z,101874.45
2018-11-04T05:51:43.677Z,101877.22
2018-11-04T05:54:11.796Z,101880.56
2018-11-04T05:56:39.883Z,101878.38
2018-11-04T05:59:08.074Z,101878.25
2018-11-04T06:01:36.252Z,101875.86
2018-11-04T06:04:04.345Z,101879.67
2018-11-04T06:06:32.500Z,101883.84
2018-11-04T06:09:00.615Z,101890.87
2018-11-04T06:11:28.812Z,101888.34
2018-11-04T06:13:56.926Z,101893.36
2018-11-04T06:16:25.048Z,101895.91
2018-11-04T06:18:53.167Z,101903.89
2018-11-04T06:21:21.244Z,101898.24
2018-11-04T06:23:49.370Z,101899.97
2018-11-04T06:26:17.539Z,101897.68
2018-11-04T06:28:45.685Z,101898.59
2018-11-04T06:31:13.900Z,101904.41
2018-11-04T06:33:42.073Z,101898.92
2018-11-04T06:36:10.242Z,101893.05
2018-11-04T06:38:38.403Z,101894.27
2018-11-04T06:41:06.624Z,101900.41
2018-11-04T06:43:34.701Z,101894.14
2018-11-04T06:46:02.979Z,101900.66
2018-11-04T06:48:31.133Z,101897.02
2018-11-04T06:50:59.250Z,101896.09
2018-11-04T06:53:27.360Z,101898.89
2018-11-04T06:55:55.515Z,101903.25
2018-11-04T06:58:23.607Z,101896.46
2018-11-04T07:00:51.720Z,101891.95
2018-11-04T07:03:19.926Z,101889.38
2018-11-04T07:05:48.133Z,101884.05
2018-11-04T07:08:16.276Z,101887.02
2018-11-04T07:10:44.425Z,101883.25
2018-11-04T07:13:12.655Z,101881.75
2018-11-04T07:15:40.838Z,101885.31
2018-11-04T07:18:09.056Z,101879.57
2018-11-04T07:20:37.197Z,101875.27
2018-11-04T07:23:05.706Z,101878.45
2018-11-04T07:25:33.857Z,101881.45
2018-11-04T07:28:02.031Z,101879.27
2018-11-04T07:30:30.193Z,101874.92
2018-11-04T07:32:58.349Z,101885.92
2018-11-04T07:35:26.463Z,101888.35
2018-11-04T07:37:54.590Z,101885.78
2018-11-04T07:40:22.699Z,101881.05
2018-11-04T07:42:50.960Z,101876.75
2018-11-04T07:45:19.101Z,101872.34
2018-11-04T07:47:47.393Z,101872.76
2018-11-04T07:50:15.619Z,101872.92
2018-11-04T07:52:44.467Z,101872.23
2018-11-04T07:55:12.699Z,101873.95
2018-11-04T07:57:42.321Z,101865.50
2018-11-04T08:00:13.087Z,101871.09
2018-11-04T08:02:41.644Z,101865.13
2018-11-04T08:05:10.874Z,101860.00
2018-11-04T08:07:39.707Z,101852.78
2018-11-04T08:10:09.377Z,101851.17
2018-11-04T08:12:37.515Z,101841.81
2018-11-04T08:15:05.644Z,101843.64
2018-11-04T08:17:33.757Z,101837.41
2018-11-04T08:20:01.896Z,101839.08
2018-11-04T08:22:30.055Z,101836.59
2018-11-04T08:24:58.262Z,101835.80
2018-11-04T08:27:26.768Z,101832.05
2018-11-04T08:29:54.884Z,101836.36
2018-11-04T08:32:23.198Z,101836.94
2018-11-04T08:34:51.309Z,101830.95
2018-11-04T08:37:19.590Z,101825.32
2018-11-04T08:39:47.888Z,101825.38
2018-11-04T08:42:16.217Z,101817.78
2018-11-04T08:44:44.366Z,101815.88
2018-11-04T08:47:12.507Z,101814.90
2018-11-04T08:49:40.684Z,101806.28
2018-11-04T08:52:08.857Z,101806.94
2018-11-04T08:54:36.984Z,101802.33
2018-11-04T08:57:05.131Z,101798.00
2018-11-04T08:59:33.460Z,101798.34
2018-11-04T09:02:01.604Z,101796.23
2018-11-04T09:04:29.756Z,101793.66
2018-11-04T09:06:57.868Z,101792.67
2018-11-04T09:09:26.037Z,101795.11
2018-11-04T09:11:54.169Z,101796.89
2018-11-04T09:14:22.432Z,101799.30
2018-11-04T09:16:50.849Z,101795.33
2018-11-04T09:19:18.981Z,101787.54
2018-11-04T09:21:47.205Z,101793.15
2018-11-04T09:24:15.324Z,101795.89
2018-11-04T09:26:43.456Z,101790.99
2018-11-04T09:29:11.698Z,101789.09
2018-11-04T09:31:39.814Z,101785.68
2018-11-04T09:34:07.957Z,101788.59
2018-11-04T09:36:39.086Z,101785.19
2018-11-04T09:39:09.067Z,101783.30
2018-11-04T09:41:37.325Z,101774.73
2018-11-04T09:44:05.704Z,101773.84
2018-11-04T09:46:34.047Z,101765.23
2018-11-04T09:49:02.163Z,101775.97
2018-11-04T09:51:30.334Z,101773.44
2018-11-04T09:53:58.484Z,101772.52
2018-11-04T09:56:26.850Z,101764.25
2018-11-04T09:58:55.100Z,101764.84
2018-11-04T10:01:23.356Z,101756.78
2018-11-04T10:03:51.498Z,101750.89
2018-11-04T10:06:19.674Z,101756.41
2018-11-04T10:08:47.821Z,101757.48
2018-11-04T10:11:15.956Z,101752.64
2018-11-04T10:13:44.119Z,101749.99
2018-11-04T10:16:12.515Z,101757.20
2018-11-04T10:18:40.709Z,101752.33
2018-11-04T10:21:09.312Z,101752.01
2018-11-04T10:23:36.989Z,101747.47
2018-11-04T10:26:05.257Z,101739.42
2018-11-04T10:28:33.477Z,101730.23
2018-11-04T10:31:01.605Z,101730.88
2018-11-04T10:33:29.789Z,101726.28
2018-11-04T10:35:58.052Z,101729.63
2018-11-04T10:38:26.203Z,101725.98
2018-11-04T10:40:54.396Z,101714.06
2018-11-04T10:43:22.609Z,101708.72
2018-11-04T10:45:50.878Z,101698.34
2018-11-04T10:48:19.055Z,101696.47
2018-11-04T10:50:47.217Z,101690.19
2018-11-04T10:53:15.350Z,101689.44
2018-11-04T10:55:43.554Z,101681.77
2018-11-04T10:58:11.641Z,101682.72
2018-11-04T11:00:45.210Z,101683.35
2018-11-04T11:03:13.332Z,101673.07
2018-11-04T11:05:41.471Z,101678.27
2018-11-04T11:08:09.619Z,101682.53
2018-11-04T11:10:37.768Z,101684.69
2018-11-04T11:13:06.315Z,101677.44
2018-11-04T11:15:34.497Z,101671.23
2018-11-04T11:18:02.866Z,101673.35
2018-11-04T11:20:31.035Z,101660.16
2018-11-04T11:22:59.265Z,101655.16
2018-11-04T11:25:27.409Z,101660.82
2018-11-04T11:27:55.590Z,101653.33
2018-11-04T11:30:23.750Z,101648.03
2018-11-04T11:32:51.973Z,101637.45
2018-11-04T11:35:20.101Z,101638.83
2018-11-04T11:37:48.311Z,101631.25
2018-11-04T11:40:16.390Z,101632.77
2018-11-04T11:42:44.518Z,101631.59
2018-11-04T11:45:12.720Z,101623.45
2018-11-04T11:47:40.952Z,101621.40
2018-11-04T11:50:09.388Z,101610.31
2018-11-04T11:52:37.676Z,101609.91
2018-11-04T11:55:06.215Z,101616.41
2018-11-04T11:57:34.419Z,101617.12
2018-11-04T12:00:02.721Z,101614.64
2018-11-04T12:02:30.933Z,101615.11
2018-11-04T12:04:59.074Z,101610.11
2018-11-04T12:07:27.370Z,101603.74
2018-11-04T12:09:55.592Z,101593.34
2018-11-04T12:12:23.777Z,101592.73
2018-11-04T12:14:52.067Z,101591.90
2018-11-04T12:17:20.365Z,101584.67
2018-11-04T12:19:48.630Z,101584.59
2018-11-04T12:22:16.820Z,101591.23
2018-11-04T12:24:45.101Z,101580.41
2018-11-04T12:27:13.426Z,101582.33
2018-11-04T12:29:41.673Z,101581.50
2018-11-04T12:32:10.083Z,101572.68
2018-11-04T12:34:38.246Z,101571.16
2018-11-04T12:37:06.395Z,101564.59
2018-11-04T12:39:34.746Z,101560.41
2018-11-04T12:42:02.967Z,101548.63
2018-11-04T12:44:31.236Z,101546.59
2018-11-04T12:46:59.419Z,101552.01
2018-11-04T12:49:27.639Z,101542.42
2018-11-04T12:51:55.783Z,101544.95
2018-11-04T12:54:24.076Z,101546.23
2018-11-04T12:56:52.301Z,101546.38
2018-11-04T12:59:20.463Z,101550.16
2018-11-04T13:01:48.686Z,101536.65
2018-11-04T13:04:16.857Z,101533.71
2018-11-04T13:06:45.026Z,101531.73
2018-11-04T13:09:13.786Z,101537.48
2018-11-04T13:11:42.114Z,101532.42
2018-11-04T13:14:10.534Z,101532.97
2018-11-04T13:16:38.700Z,101531.33
2018-11-04T13:19:06.954Z,101530.36
2018-11-04T13:21:36.020Z,101532.55
2018-11-04T13:24:04.491Z,101532.00
2018-11-04T13:26:32.967Z,101524.20
2018-11-04T13:29:02.213Z,101521.05
2018-11-04T13:31:30.430Z,101511.77
2018-11-04T13:33:58.636Z,101510.30
2018-11-04T13:36:26.858Z,101512.44
2018-11-04T13:38:55.108Z,101515.16
2018-11-04T13:41:23.311Z,101512.23
2018-11-04T13:43:52.044Z,101506.07
2018-11-04T13:46:20.282Z,101508.45
2018-11-04T13:48:48.497Z,101506.69
2018-11-04T13:51:16.693Z,101510.17
2018-11-04T13:53:44.970Z,101511.77
2018-11-04T13:56:13.238Z,101509.48
2018-11-04T13:58:41.511Z,101508.56
2018-11-04T14:01:09.675Z,101506.70
2018-11-04T14:03:37.924Z,101509.02
2018-11-04T14:06:06.156Z,101504.84
2018-11-04T14:08:34.480Z,101504.75
2018-11-04T14:11:02.692Z,101509.43
2018-11-04T14:13:31.036Z,101512.16
2018-11-04T14:15:59.238Z,101506.97
2018-11-04T14:18:27.470Z,101509.83
2018-11-04T14:20:55.636Z,101505.25
2018-11-04T14:23:23.886Z,101510.45
2018-11-04T14:25:52.206Z,101506.62
2018-11-04T14:28:20.384Z,101496.02
2018-11-04T14:30:48.664Z,101488.44
2018-11-04T14:33:17.358Z,101479.88
2018-11-04T14:35:45.594Z,101488.14
2018-11-04T14:38:13.796Z,101486.45
2018-11-04T14:40:41.971Z,101483.23
2018-11-04T14:43:10.102Z,101484.99
2018-11-04T14:45:38.324Z,101491.37
2018-11-04T14:48:06.540Z,101481.31
2018-11-04T14:50:34.789Z,101480.89
2018-11-04T14:53:03.044Z,101492.17
2018-11-04T14:55:31.148Z,101485.53
2018-11-04T14:57:59.383Z,101482.74
2018-11-04T15:00:27.704Z,101480.02
2018-11-04T15:02:55.985Z,101477.63
2018-11-04T15:05:24.217Z,101467.34
2018-11-04T15:07:52.414Z,101476.23
2018-11-04T15:10:20.649Z,101475.63
2018-11-04T15:12:48.898Z,101475.64
2018-11-04T15:15:17.926Z,101466.73
2018-11-04T15:17:46.114Z,101471.59
2018-11-04T15:20:14.356Z,101468.98
2018-11-04T15:22:51.019Z,101474.14
2018-11-04T15:25:20.452Z,101468.23
2018-11-04T15:27:48.797Z,101478.70
2018-11-04T15:30:16.988Z,101476.39
2018-11-04T15:32:45.262Z,101468.66
2018-11-04T15:35:14.447Z,101479.27
2018-11-04T15:37:42.660Z,101476.04
2018-11-04T15:40:12.445Z,101477.21
2018-11-04T15:42:40.680Z,101471.59
2018-11-04T15:45:10.510Z,101477.63
2018-11-04T15:47:38.974Z,101469.20
2018-11-04T15:50:09.299Z,101466.80
2018-11-04T15:52:37.708Z,101465.45
2018-11-04T15:55:06.072Z,101458.13
2018-11-04T15:57:34.282Z,101451.55
2018-11-04T16:00:02.599Z,101461.27
2018-11-04T16:02:30.868Z,101456.14
2018-11-04T16:04:59.099Z,101459.76
2018-11-04T16:07:27.317Z,101455.98
2018-11-04T16:09:55.545Z,101450.04
2018-11-04T16:12:23.846Z,101453.05
2018-11-04T16:14:52.146Z,101448.12
2018-11-04T16:17:20.632Z,101442.58
2018-11-04T16:19:49.105Z,101444.97
2018-11-04T16:22:17.550Z,101441.62
2018-11-04T16:24:45.836Z,101450.17
2018-11-04T16:27:14.091Z,101452.86
2018-11-04T16:29:42.329Z,101446.41
2018-11-04T16:32:10.651Z,101444.92
2018-11-04T16:34:38.880Z,101445.17
2018-11-04T16:37:07.273Z,101444.42
2018-11-04T16:39:35.536Z,101451.09
2018-11-04T16:42:03.729Z,101443.54
2018-11-04T16:44:32.065Z,101435.69
2018-11-04T16:47:00.276Z,101439.42
2018-11-04T16:49:28.458Z,101435.94
2018-11-04T16:51:56.818Z,101438.87
2018-11-04T16:54:25.014Z,101433.02
2018-11-04T16:56:54.334Z,101424.74
2018-11-04T16:59:23.167Z,101426.16
2018-11-04T17:01:51.389Z,101432.10
2018-11-04T17:04:19.955Z,101421.23
2018-11-04T17:06:48.051Z,101431.62
2018-11-04T17:09:16.292Z,101431.91
2018-11-04T17:11:44.548Z,101428.47
2018-11-04T17:14:12.785Z,101437.45
2018-11-04T17:16:40.961Z,101434.48
2018-11-04T17:19:09.155Z,101432.77
2018-11-04T17:21:37.412Z,101433.20
2018-11-04T17:24:05.610Z,101434.44
2018-11-04T17:26:33.971Z,101428.60
2018-11-04T17:29:02.260Z,101429.98
2018-11-04T17:31:30.674Z,101425.28
2018-11-04T17:33:58.938Z,101435.74
2018-11-04T17:36:27.244Z,101435.59
2018-11-04T17:38:55.471Z,101429.36
2018-11-04T17:41:23.713Z,101429.14
2018-11-04T17:43:51.933Z,101427.98
2018-11-04T17:46:20.199Z,101429.91
2018-11-04T17:48:48.526Z,101423.82
2018-11-04T17:51:16.788Z,101416.58
2018-11-04T17:53:45.204Z,101413.70
2018-11-04T17:56:13.394Z,101408.78
2018-11-04T17:58:41.713Z,101409.44
2018-11-04T18:01:10.566Z,101412.45
2018-11-04T18:03:38.866Z,101404.31
2018-11-04T18:06:07.179Z,101406.42
2018-11-04T18:08:35.441Z,101397.98
2018-11-04T18:11:03.680Z,101402.28
2018-11-04T18:13:31.915Z,101401.75
2018-11-04T18:16:00.179Z,101394.91
2018-11-04T18:18:28.414Z,101397.20
2018-11-04T18:20:56.584Z,101396.46
2018-11-04T18:23:24.778Z,101396.70
2018-11-04T18:25:53.045Z,101391.47
2018-11-04T18:28:21.295Z,101393.56
2018-11-04T18:30:49.622Z,101393.69
2018-11-04T18:33:18.009Z,101390.70
2018-11-04T18:35:46.253Z,101390.25
2018-11-04T18:38:14.622Z,101387.41
2018-11-04T18:40:42.965Z,101393.91
2018-11-04T18:43:11.175Z,101381.47
2018-11-04T18:45:39.476Z,101379.53
2018-11-04T18:48:07.759Z,101385.95
2018-11-04T18:50:36.057Z,101382.20
2018-11-04T18:53:04.610Z,101385.15
2018-11-04T18:55:33.256Z,101375.83
2018-11-04T18:58:01.547Z,101378.38
2018-11-04T19:00:29.855Z,101373.80
2018-11-04T19:02:58.644Z,101372.03
2018-11-04T19:05:26.985Z,101374.10
2018-11-04T19:07:55.217Z,101372.76
2018-11-04T19:10:23.462Z,101366.98
2018-11-04T19:12:51.692Z,101373.14
2018-11-04T19:15:20.967Z,101371.47
2018-11-04T19:17:49.282Z,101370.28
2018-11-04T19:20:17.624Z,101366.76
2018-11-04T19:22:45.864Z,101364.73
2018-11-04T19:25:15.150Z,101372.53
2018-11-04T19:27:43.465Z,101373.34
2018-11-04T19:30:13.383Z,101372.23
2018-11-04T19:32:42.058Z,101367.94
2018-11-04T19:35:11.360Z,101376.20
2018-11-04T19:37:40.268Z,101375.13
2018-11-04T19:40:09.967Z,101366.38
2018-11-04T19:42:38.585Z,101359.95
2018-11-04T19:45:07.051Z,101359.76
2018-11-04T19:47:35.297Z,101345.11
2018-11-04T19:50:03.802Z,101342.97
2018-11-04T19:52:32.088Z,101339.79
2018-11-04T19:55:00.374Z,101339.60
2018-11-04T19:57:29.704Z,101347.48
2018-11-04T19:59:59.303Z,101348.28
2018-11-04T20:02:29.731Z,101351.72
2018-11-04T20:04:58.921Z,101356.05
2018-11-04T20:07:27.377Z,101358.73
2018-11-04T20:09:55.665Z,101355.36
2018-11-04T20:12:29.255Z,101355.13
2018-11-04T20:14:57.497Z,101355.44
2018-11-04T20:17:25.761Z,101345.53
2018-11-04T20:19:59.595Z,101350.84
2018-11-04T20:22:27.809Z,101351.72
2018-11-04T20:25:01.328Z,101348.81
2018-11-04T20:27:29.729Z,101337.95
2018-11-04T20:29:58.003Z,101343.80
2018-11-04T20:32:31.715Z,101334.90
2018-11-04T20:37:29.945Z,101341.89
2018-11-04T20:40:03.611Z,101346.52
2018-11-04T20:42:31.875Z,101342.05
2018-11-04T20:45:00.349Z,101340.09
2018-11-04T20:47:33.909Z,101332.83
2018-11-04T20:50:07.623Z,101331.98
2018-11-04T20:52:35.841Z,101333.89
2018-11-04T20:55:04.140Z,101332.10
2018-11-04T20:57:38.644Z,101324.19
2018-11-04T21:00:09.212Z,101323.58
2018-11-04T21:02:37.802Z,101321.05
2018-11-04T21:05:06.166Z,101310.00
2018-11-04T21:07:34.521Z,101313.06
2018-11-04T21:10:03.728Z,101305.14
2018-11-04T21:12:32.011Z,101293.20
2018-11-04T21:15:00.430Z,101285.42
2018-11-04T21:17:28.677Z,101284.23
2018-11-04T21:19:56.902Z,101283.05
2018-11-04T21:22:25.449Z,101285.82
2018-11-04T21:24:53.995Z,101291.44
2018-11-04T21:27:22.095Z,101295.80
2018-11-04T21:29:50.707Z,101288.70
2018-11-04T21:32:18.779Z,101296.45
2018-11-04T21:34:47.394Z,101290.60
2018-11-04T21:37:15.626Z,101293.78
2018-11-04T21:39:44.543Z,101290.84
2018-11-04T21:42:12.782Z,101293.09
2018-11-04T21:44:41.013Z,101277.25
2018-11-04T21:47:09.271Z,101280.89
2018-11-04T21:49:37.523Z,101279.31
2018-11-04T21:52:05.883Z,101287.13
2018-11-04T21:54:34.111Z,101279.83
2018-11-04T21:57:02.318Z,101268.61
2018-11-04T21:59:30.643Z,101272.69
2018-11-04T22:01:58.754Z,101269.69
2018-11-04T22:04:27.068Z,101254.19
2018-11-04T22:06:55.223Z,101245.09
2018-11-04T22:09:23.452Z,101261.94
2018-11-04T22:11:51.633Z,101262.39
2018-11-04T22:14:19.870Z,101262.08
2018-11-04T22:16:48.082Z,101250.16
2018-11-04T22:19:16.275Z,101250.37
2018-11-04T22:21:44.504Z,101252.28
2018-11-04T22:24:12.660Z,101262.80
2018-11-04T22:26:40.785Z,101259.92
2018-11-04T22:29:08.965Z,101242.00
2018-11-04T22:31:37.101Z,101232.86
2018-11-04T22:34:05.585Z,101244.00
2018-11-04T22:36:33.780Z,101243.66
2018-11-04T22:39:01.935Z,101239.05
2018-11-04T22:41:30.085Z,101243.09
2018-11-04T22:43:58.302Z,101240.10
2018-11-04T22:46:26.477Z,101250.82
2018-11-04T22:48:54.637Z,101246.50
2018-11-04T22:51:22.797Z,101259.81
2018-11-04T22:53:50.973Z,101259.08
2018-11-04T22:56:19.166Z,101250.34
2018-11-04T22:58:47.323Z,101234.38
2018-11-04T23:01:15.475Z,101219.36
2018-11-04T23:03:43.603Z,101232.09
2018-11-04T23:06:11.767Z,101253.67
2018-11-04T23:08:39.963Z,101241.58
2018-11-04T23:11:08.123Z,101243.03
2018-11-04T23:13:36.309Z,101239.66
2018-11-04T23:16:04.515Z,101234.79
2018-11-04T23:18:32.803Z,101239.19
2018-11-04T23:21:01.009Z,101238.86
2018-11-04T23:23:29.155Z,101222.39
2018-11-04T23:25:57.430Z,101214.69
2018-11-04T23:28:25.573Z,101222.67
2018-11-04T23:30:53.733Z,101230.44
2018-11-04T23:33:21.926Z,101217.44
2018-11-04T23:35:50.107Z,101211.49
2018-11-04T23:38:18.273Z,101221.77
2018-11-04T23:40:46.478Z,101214.94
2018-11-04T23:43:14.649Z,101198.73
2018-11-04T23:45:43.022Z,101213.63
2018-11-04T23:48:11.159Z,101207.48
2018-11-04T23:50:39.354Z,101210.33
2018-11-04T23:53:07.560Z,101218.41
2018-11-04T23:55:35.754Z,101212.62
